Arcadia, Iowa
Current Conditions -  °F | °C
As of 9:15 AM on Wednesday 26 Nov 2014 (Local Time) from KCIN Reporting Station
Overcast Overcast  
Wind Chill: 20°   Ceiling: 500
Heat Index: 28°   Visibility: 9mi
Dew Point: 27°   Wind: 9mph
Humidity: 93%   Direction: 40°NE
Pressure: 29.94"   Gusts: NA
Location:  42.09°N, 95.05°W
Report Text: KCIN 261515Z AUTO 04008KT 9SM OVC005 M02/M03 A2994 RMK AO2
Loading
Personal Weather Stations






























Interactive Weather Map New forecast layout! Learn more

10-Day Weather Forecast

Advertisements
Track Severe Weather on mobile